Time;durP1;ratioP1;P1;durP2;ratioP2;P2;SDS_P1;SDS_P2;PMS_P1;PMS_P2;Temp;Humidity;BMP_temperature;BMP_pressure;BME280_temperature;BME280_humidity;BME280_pressure;Samples;Min_cycle;Max_cycle;Signal;HPM_P1;HPM_P2
2023/03/09 00:00:45;;;;;;;3.90;2.40;;;;;;;-143.04;100.00;61139.28;5039349;28;20103;-80
2023/03/09 00:03:15;;;;;;;2.17;1.67;;;;;;;-143.04;100.00;61139.28;5041044;28;20057;-81
2023/03/09 00:05:59;;;;;;;3.65;2.05;;;;;;;-143.04;100.00;61139.28;5039554;28;20041;-80
2023/03/09 00:08:28;;;;;;;2.63;1.63;;;;;;;-143.04;100.00;61139.28;5034609;28;20036;-81
2023/03/09 00:10:53;;;;;;;3.03;2.10;;;;;;;-143.04;100.00;61139.28;5037049;28;20041;-82
2023/03/09 00:13:21;;;;;;;4.65;2.30;;;;;;;-143.04;100.00;61139.28;5038243;28;20381;-81
2023/03/09 00:15:50;;;;;;;2.60;2.28;;;;;;;-143.04;100.00;61139.28;5035472;28;20064;-81
2023/03/09 00:18:23;;;;;;;4.28;2.17;;;;;;;-143.04;100.00;61139.28;5023246;28;20121;-81
2023/03/09 00:20:49;;;;;;;4.45;2.00;;;;;;;-143.04;100.00;61139.28;5037236;28;20504;-81
2023/03/09 00:23:18;;;;;;;5.65;2.40;;;;;;;-143.04;100.00;61139.28;5028780;28;20040;-81
2023/03/09 00:25:44;;;;;;;4.53;2.38;;;;;;;-143.04;100.00;61139.28;5033744;28;20041;-82
2023/03/09 00:28:10;;;;;;;3.40;2.20;;;;;;;-143.04;100.00;61139.28;5034496;28;20041;-81
2023/03/09 00:30:36;;;;;;;3.65;2.08;;;;;;;-143.04;100.00;61139.28;5036723;28;20033;-82
2023/03/09 00:33:01;;;;;;;3.17;2.22;;;;;;;-143.04;100.00;61139.28;5031565;28;20130;-82
2023/03/09 00:35:27;;;;;;;3.40;2.28;;;;;;;-143.04;100.00;61139.28;5035749;28;20037;-82
2023/03/09 00:37:53;;;;;;;4.53;3.00;;;;;;;-143.04;100.00;61139.28;5037896;28;20354;-82
2023/03/09 00:40:19;;;;;;;3.03;2.30;;;;;;;-143.04;100.00;61139.28;5037465;28;20036;-82
2023/03/09 00:42:45;;;;;;;4.40;2.47;;;;;;;-143.04;100.00;61139.28;5035193;28;20041;-82
2023/03/09 00:45:12;;;;;;;3.67;2.40;;;;;;;-143.04;100.00;61139.28;5034169;28;20021;-82
2023/03/09 00:47:39;;;;;;;4.07;2.75;;;;;;;-143.04;100.00;61139.28;5033420;28;20041;-83
2023/03/09 00:50:07;;;;;;;4.40;2.65;;;;;;;-143.04;100.00;61139.28;5033608;28;20527;-83
2023/03/09 00:52:33;;;;;;;3.78;2.80;;;;;;;-143.04;100.00;61139.28;5027684;28;20048;-83
2023/03/09 00:54:59;;;;;;;5.03;2.85;;;;;;;-143.04;100.00;61139.28;5034026;28;20049;-83
2023/03/09 00:57:26;;;;;;;4.15;2.75;;;;;;;-143.04;100.00;61139.28;5030257;28;20026;-83
2023/03/09 00:59:52;;;;;;;4.70;2.47;;;;;;;-143.04;100.00;61139.28;5039161;28;20076;-83
2023/03/09 01:02:19;;;;;;;4.32;2.33;;;;;;;-143.04;100.00;61139.28;5034970;28;20037;-83
2023/03/09 01:04:46;;;;;;;5.60;2.97;;;;;;;-143.04;100.00;61139.28;5036192;28;20037;-83
2023/03/09 01:07:12;;;;;;;6.07;2.70;;;;;;;-143.04;100.00;61139.28;5032902;28;20065;-82
2023/03/09 01:09:38;;;;;;;6.07;3.25;;;;;;;-143.04;100.00;61139.28;5036757;28;20574;-82
2023/03/09 01:12:06;;;;;;;4.93;3.00;;;;;;;-143.04;100.00;61139.28;5048698;28;20061;-83
2023/03/09 01:14:32;;;;;;;4.90;2.83;;;;;;;-143.04;100.00;61139.28;5035772;28;20050;-83
2023/03/09 01:16:58;;;;;;;5.93;2.92;;;;;;;-143.04;100.00;61139.28;5037999;28;20029;-82
2023/03/09 01:19:24;;;;;;;6.07;3.35;;;;;;;-143.04;100.00;61139.28;5023590;28;20033;-83
2023/03/09 01:21:49;;;;;;;5.72;3.25;;;;;;;-143.04;100.00;61139.28;5032907;28;20393;-83
2023/03/09 01:24:15;;;;;;;5.60;3.45;;;;;;;-143.04;100.00;61139.28;5038151;28;20033;-83
2023/03/09 01:26:40;;;;;;;4.97;3.50;;;;;;;-143.04;100.00;61139.28;5034933;28;20033;-83
2023/03/09 01:29:06;;;;;;;7.65;4.20;;;;;;;-143.04;100.00;61139.28;5035753;28;20037;-83
2023/03/09 01:31:32;;;;;;;7.88;3.75;;;;;;;-143.04;100.00;61139.28;5042019;28;20069;-84
2023/03/09 01:33:57;;;;;;;5.85;3.17;;;;;;;-143.04;100.00;61139.28;5037260;28;20035;-84
2023/03/09 01:36:23;;;;;;;2.15;1.88;;;;;;;-143.04;100.00;61139.28;5036828;28;20040;-84
2023/03/09 01:38:48;;;;;;;5.32;2.60;;;;;;;-143.04;100.00;61139.28;5043299;28;20116;-83
2023/03/09 01:41:17;;;;;;;3.10;2.20;;;;;;;-143.04;100.00;61139.28;5042783;28;20142;-84
2023/03/09 01:43:51;;;;;;;3.53;2.08;;;;;;;-143.04;100.00;61139.28;5038321;28;20115;-83
2023/03/09 01:46:16;;;;;;;5.00;3.08;;;;;;;-143.04;100.00;61139.28;5030526;28;20041;-84
2023/03/09 01:48:42;;;;;;;5.30;2.13;;;;;;;-143.04;100.00;61139.28;5030561;28;20033;-84
2023/03/09 01:51:08;;;;;;;2.25;2.05;;;;;;;-143.04;100.00;61139.28;5034390;28;20033;-84
2023/03/09 01:53:33;;;;;;;3.13;1.70;;;;;;;-143.04;100.00;61139.28;5030514;28;20042;-85
2023/03/09 01:56:01;;;;;;;1.42;1.33;;;;;;;-143.04;100.00;61139.28;5034705;28;20033;-84
2023/03/09 01:58:30;;;;;;;2.63;1.30;;;;;;;-143.04;100.00;61139.28;5039371;28;20029;-82
2023/03/09 02:00:56;;;;;;;1.10;1.00;;;;;;;-143.04;100.00;61139.28;5042628;28;20033;-81
2023/03/09 02:03:31;;;;;;;0.75;0.70;;;;;;;-143.04;100.00;61139.28;5038274;28;20037;-81
2023/03/09 02:06:04;;;;;;;0.90;0.73;;;;;;;-143.04;100.00;61139.28;5043196;28;20064;-82
2023/03/09 02:08:31;;;;;;;1.17;0.90;;;;;;;-143.04;100.00;61139.28;5037529;28;20044;-81
2023/03/09 02:11:03;;;;;;;2.00;0.90;;;;;;;-143.04;100.00;61139.28;5041962;28;20037;-81
2023/03/09 02:13:31;;;;;;;;;;;;;;;-143.04;100.00;61139.28;5043049;28;20091;-81
2023/03/09 02:15:57;;;;;;;1.25;0.70;;;;;;;-143.04;100.00;61139.28;5039947;28;19931;-81
2023/03/09 02:18:24;;;;;;;2.22;1.05;;;;;;;-143.04;100.00;61139.28;5038889;28;20033;-81
2023/03/09 02:21:32;;;;;;;1.02;0.80;;;;;;;-143.04;100.00;61139.28;5037992;28;20552;-81
2023/03/09 02:24:34;;;;;;;0.80;0.65;;;;;;;-143.04;100.00;61139.28;5034690;28;20037;-82
2023/03/09 02:27:25;;;;;;;0.80;0.70;;;;;;;-143.04;100.00;61139.28;5041257;28;20029;-81
2023/03/09 02:29:52;;;;;;;2.60;1.00;;;;;;;-143.04;100.00;61139.28;5035983;28;20033;-81
2023/03/09 02:32:18;;;;;;;2.42;0.60;;;;;;;-143.04;100.00;61139.28;5037747;28;20069;-81
2023/03/09 02:34:45;;;;;;;1.50;0.90;;;;;;;-143.04;100.00;61139.28;5037053;28;20095;-82
2023/03/09 02:37:27;;;;;;;1.38;0.73;;;;;;;-143.04;100.00;61139.28;5039210;28;20033;-80
2023/03/09 02:40:04;;;;;;;0.60;0.60;;;;;;;-143.04;100.00;61139.28;5035563;28;20068;-80
2023/03/09 02:42:30;;;;;;;1.92;0.68;;;;;;;-143.04;100.00;61139.28;5035117;28;20033;-81
2023/03/09 02:44:57;;;;;;;1.33;0.60;;;;;;;-143.04;100.00;61139.28;5036630;28;20092;-81
2023/03/09 02:47:24;;;;;;;0.68;0.50;;;;;;;-143.04;100.00;61139.28;5036876;28;20028;-84
2023/03/09 02:49:50;;;;;;;0.88;0.70;;;;;;;-143.04;100.00;61139.28;5031014;28;20125;-87
2023/03/09 02:52:16;;;;;;;1.45;0.70;;;;;;;-143.04;100.00;61139.28;5027284;28;20040;-86
2023/03/09 02:54:41;;;;;;;1.02;0.68;;;;;;;-143.04;100.00;61139.28;5028788;28;20144;-86
2023/03/09 02:57:07;;;;;;;0.50;0.50;;;;;;;-143.04;100.00;61139.28;5017435;28;20022;-88
2023/03/09 02:59:38;;;;;;;1.17;0.50;;;;;;;-143.04;100.00;61139.28;5042868;28;20029;-90
2023/03/09 03:02:04;;;;;;;1.10;0.52;;;;;;;-143.04;100.00;61139.28;5035741;28;20033;-89
2023/03/09 03:04:33;;;;;;;1.38;0.75;;;;;;;-143.04;100.00;61139.28;5028499;28;20041;-89
2023/03/09 03:06:58;;;;;;;1.42;0.70;;;;;;;-143.04;100.00;61139.28;5031815;28;20428;-89
2023/03/09 03:09:25;;;;;;;0.80;0.70;;;;;;;-143.04;100.00;61139.28;5024517;28;20029;-86
2023/03/09 03:11:54;;;;;;;1.90;0.45;;;;;;;-143.04;100.00;61139.28;5021685;28;20370;-88
2023/03/09 03:14:20;;;;;;;0.90;0.70;;;;;;;-143.04;100.00;61139.28;5014845;28;20520;-89
2023/03/09 03:16:45;;;;;;;1.50;0.90;;;;;;;-143.04;100.00;61139.28;5022161;28;20033;-86
2023/03/09 03:19:11;;;;;;;0.98;0.88;;;;;;;-143.04;100.00;61139.28;5026592;28;20064;-86
2023/03/09 03:21:36;;;;;;;1.10;1.00;;;;;;;-143.04;100.00;61139.28;5030391;28;20037;-87
2023/03/09 03:24:02;;;;;;;1.85;1.25;;;;;;;-143.04;100.00;61139.28;5033637;28;20036;-85
2023/03/09 03:26:28;;;;;;;1.50;1.00;;;;;;;-143.04;100.00;61139.28;5033911;28;20462;-84
2023/03/09 03:28:53;;;;;;;2.17;1.00;;;;;;;-143.04;100.00;61139.28;5022259;28;20034;-86
2023/03/09 03:31:19;;;;;;;2.35;1.10;;;;;;;-143.04;100.00;61139.28;5045079;28;20147;-88
2023/03/09 03:33:49;;;;;;;2.67;1.38;;;;;;;-143.04;100.00;61139.28;5038354;28;20037;-87
2023/03/09 03:36:14;;;;;;;1.55;1.40;;;;;;;-143.04;100.00;61139.28;5025909;28;20105;-85
2023/03/09 03:38:40;;;;;;;3.45;1.70;;;;;;;-143.04;100.00;61139.28;5027792;28;20036;-86
2023/03/09 03:41:06;;;;;;;2.22;1.48;;;;;;;-143.04;100.00;61139.28;5016805;28;20029;-89
2023/03/09 03:43:31;;;;;;;3.80;1.70;;;;;;;-143.04;100.00;61139.28;5033407;28;20559;-86
2023/03/09 03:45:57;;;;;;;3.13;1.58;;;;;;;-143.04;100.00;61139.28;5021851;28;20034;-88
2023/03/09 03:48:27;;;;;;;2.22;1.30;;;;;;;-143.04;100.00;61139.28;5023909;28;20033;-89
2023/03/09 03:50:53;;;;;;;3.00;1.75;;;;;;;-143.04;100.00;61139.28;5032880;28;20021;-87
2023/03/09 03:53:20;;;;;;;2.10;1.70;;;;;;;-143.04;100.00;61139.28;5033682;28;20037;-91
2023/03/09 03:55:46;;;;;;;3.42;2.13;;;;;;;-143.04;100.00;61139.28;5048840;28;20041;-90
2023/03/09 03:58:12;;;;;;;6.47;1.85;;;;;;;-143.04;100.00;61139.28;5035017;28;20041;-91
2023/03/09 04:00:39;;;;;;;5.00;1.80;;;;;;;-143.04;100.00;61139.28;5014734;28;20554;-90
2023/03/09 04:03:14;;;;;;;4.32;1.80;;;;;;;-143.04;100.00;61139.28;5024050;28;20034;-89
2023/03/09 04:05:42;;;;;;;4.40;1.88;;;;;;;-143.04;100.00;61139.28;5013796;28;20496;-89
2023/03/09 04:08:08;;;;;;;3.92;1.88;;;;;;;-143.04;100.00;61139.28;5015994;28;20057;-84
2023/03/09 04:10:37;;;;;;;3.75;1.70;;;;;;;-143.04;100.00;61139.28;5021713;28;20037;-85
2023/03/09 04:13:03;;;;;;;3.20;2.20;;;;;;;-143.04;100.00;61139.28;5037660;28;20037;-86
2023/03/09 04:15:31;;;;;;;3.35;1.23;;;;;;;-143.04;100.00;61139.28;5029703;28;20064;-87
2023/03/09 04:17:57;;;;;;;2.15;1.48;;;;;;;-143.04;100.00;61139.28;5028897;28;20041;-85
2023/03/09 04:20:22;;;;;;;4.38;2.08;;;;;;;-143.04;100.00;61139.28;5031551;28;20037;-87
2023/03/09 04:22:51;;;;;;;1.95;1.55;;;;;;;-143.04;100.00;61139.28;5023701;28;20069;-86
2023/03/09 04:25:18;;;;;;;5.35;1.75;;;;;;;-143.04;100.00;61139.28;5040332;28;20033;-88
2023/03/09 04:27:44;;;;;;;2.20;1.15;;;;;;;-143.04;100.00;61139.28;5030432;28;20037;-85
2023/03/09 04:30:11;;;;;;;3.17;1.80;;;;;;;-143.04;100.00;61139.28;5025626;28;20470;-86
2023/03/09 04:32:36;;;;;;;2.50;1.70;;;;;;;-143.04;100.00;61139.28;5026179;28;20432;-86
2023/03/09 04:35:05;;;;;;;3.35;1.70;;;;;;;-143.04;100.00;61139.28;5026928;28;20037;-85
2023/03/09 04:37:30;;;;;;;2.42;1.80;;;;;;;-143.04;100.00;61139.28;5021124;28;20021;-88
2023/03/09 04:39:56;;;;;;;1.65;1.30;;;;;;;-143.04;100.00;61139.28;5028195;28;20025;-86
2023/03/09 04:42:21;;;;;;;3.65;1.40;;;;;;;-143.04;100.00;61139.28;5036414;28;20037;-86
2023/03/09 04:44:50;;;;;;;1.45;1.20;;;;;;;-143.04;100.00;61139.28;5031657;28;20029;-91
2023/03/09 04:47:18;;;;;;;1.23;1.10;;;;;;;-143.04;100.00;61139.28;5022310;28;20040;-87
2023/03/09 04:49:53;;;;;;;1.40;1.30;;;;;;;-143.04;100.00;61139.28;5025407;28;20545;-91
2023/03/09 04:52:19;;;;;;;1.52;1.00;;;;;;;-143.04;100.00;61139.28;5043383;28;20083;-88
2023/03/09 04:54:46;;;;;;;1.00;1.00;;;;;;;-143.04;100.00;61139.28;5015905;28;20433;-86
2023/03/09 04:57:12;;;;;;;1.67;0.88;;;;;;;-143.04;100.00;61139.28;5023769;28;20038;-87
2023/03/09 04:59:37;;;;;;;1.08;0.80;;;;;;;-143.04;100.00;61139.28;5021503;28;20100;-86
2023/03/09 05:02:03;;;;;;;1.27;0.73;;;;;;;-143.04;100.00;61139.28;5027862;28;20038;-89
2023/03/09 05:04:29;;;;;;;1.08;0.90;;;;;;;-143.04;100.00;61139.28;5033292;28;20454;-88
2023/03/09 05:06:54;;;;;;;0.73;0.73;;;;;;;-143.04;100.00;61139.28;5035019;28;20495;-86
2023/03/09 05:09:20;;;;;;;0.70;0.70;;;;;;;-143.04;100.00;61139.28;5024597;28;20108;-85
2023/03/09 05:11:51;;;;;;;0.80;0.80;;;;;;;-143.04;100.00;61139.28;5038447;28;20057;-86
2023/03/09 05:14:16;;;;;;;0.77;0.77;;;;;;;-143.04;100.00;61139.28;5043370;28;20407;-86
2023/03/09 05:16:42;;;;;;;0.88;0.73;;;;;;;-143.04;100.00;61139.28;5034415;28;20033;-86
2023/03/09 05:19:10;;;;;;;1.40;0.70;;;;;;;-143.04;100.00;61139.28;5030310;28;20033;-86
2023/03/09 05:21:36;;;;;;;1.02;0.90;;;;;;;-143.04;100.00;61139.28;5033692;28;20041;-85
2023/03/09 05:24:03;;;;;;;1.05;0.60;;;;;;;-143.04;100.00;61139.28;5039234;28;20032;-85
2023/03/09 05:26:29;;;;;;;1.20;0.80;;;;;;;-143.04;100.00;61139.28;5040937;28;20432;-85
2023/03/09 05:28:55;;;;;;;1.17;0.90;;;;;;;-143.04;100.00;61139.28;5042044;28;20044;-85
2023/03/09 05:31:21;;;;;;;0.60;0.60;;;;;;;-143.04;100.00;61139.28;5025758;28;20465;-86
2023/03/09 05:33:46;;;;;;;1.27;0.90;;;;;;;-143.04;100.00;61139.28;5041412;28;20041;-84
2023/03/09 05:36:32;;;;;;;2.25;1.10;;;;;;;-143.04;100.00;61139.28;5034097;28;20474;-85
2023/03/09 05:38:58;;;;;;;1.33;0.90;;;;;;;-143.04;100.00;61139.28;5033460;28;20080;-84
2023/03/09 05:41:23;;;;;;;0.60;0.60;;;;;;;-143.04;100.00;61139.28;5045638;28;20067;-84
2023/03/09 05:43:49;;;;;;;1.00;0.85;;;;;;;-143.04;100.00;61139.28;5041149;28;20041;-84
2023/03/09 05:46:16;;;;;;;2.08;0.98;;;;;;;-143.04;100.00;61139.28;5031134;28;20030;-83
2023/03/09 05:48:45;;;;;;;0.70;0.70;;;;;;;-143.04;100.00;61139.28;5037427;28;20037;-84
2023/03/09 05:51:11;;;;;;;1.10;1.00;;;;;;;-143.04;100.00;61139.28;5036520;28;20048;-84
2023/03/09 05:53:37;;;;;;;2.95;0.80;;;;;;;-143.04;100.00;61139.28;5039092;28;20029;-83
2023/03/09 05:56:05;;;;;;;2.35;1.15;;;;;;;-143.04;100.00;61139.28;5041868;28;20048;-83
2023/03/09 05:58:31;;;;;;;1.63;0.93;;;;;;;-143.04;100.00;61139.28;5040082;28;20034;-83
2023/03/09 06:00:56;;;;;;;1.10;1.00;;;;;;;-143.04;100.00;61139.28;5040886;28;20046;-84
2023/03/09 06:03:23;;;;;;;0.98;0.88;;;;;;;-143.04;100.00;61139.28;5042984;28;20072;-83
2023/03/09 06:06:02;;;;;;;1.30;1.10;;;;;;;-143.04;100.00;61139.28;5036660;28;20477;-83
2023/03/09 06:08:29;;;;;;;1.27;1.17;;;;;;;-143.04;100.00;61139.28;5039147;28;20037;-82
2023/03/09 06:10:58;;;;;;;1.83;1.00;;;;;;;-143.04;100.00;61139.28;5038732;28;20040;-82
2023/03/09 06:13:23;;;;;;;1.75;1.23;;;;;;;-143.04;100.00;61139.28;5040424;28;20067;-82
2023/03/09 06:15:49;;;;;;;1.30;1.10;;;;;;;-143.04;100.00;61139.28;5040783;28;20046;-82
2023/03/09 06:18:14;;;;;;;2.17;1.48;;;;;;;-143.04;100.00;61139.28;5039792;28;20108;-82
2023/03/09 06:20:40;;;;;;;1.17;1.02;;;;;;;-143.04;100.00;61139.28;5039523;28;20041;-81
2023/03/09 06:23:05;;;;;;;0.90;0.90;;;;;;;-143.04;100.00;61139.28;5036772;28;20033;-81
2023/03/09 06:25:31;;;;;;;1.10;1.00;;;;;;;-143.04;100.00;61139.28;5037092;28;20034;-81
2023/03/09 06:27:56;;;;;;;1.50;1.40;;;;;;;-143.04;100.00;61139.28;5038666;28;20037;-82
2023/03/09 06:30:26;;;;;;;1.65;1.38;;;;;;;-143.04;100.00;61139.28;5035913;28;20048;-81
2023/03/09 06:32:52;;;;;;;1.73;1.50;;;;;;;-143.04;100.00;61139.28;5039777;28;20101;-82
2023/03/09 06:35:18;;;;;;;2.38;1.33;;;;;;;-143.04;100.00;61139.28;5037308;28;20064;-82
2023/03/09 06:37:45;;;;;;;1.50;1.30;;;;;;;-143.04;100.00;61139.28;5035461;28;20531;-81
2023/03/09 06:40:12;;;;;;;1.63;1.52;;;;;;;-143.04;100.00;61139.28;5038220;28;20044;-81
2023/03/09 06:42:40;;;;;;;1.63;1.52;;;;;;;-143.04;100.00;61139.28;5041353;28;20059;-82
2023/03/09 06:45:07;;;;;;;1.40;1.30;;;;;;;-143.04;100.00;61139.28;5037288;28;20030;-82
2023/03/09 06:47:33;;;;;;;2.13;1.40;;;;;;;-143.04;100.00;61139.28;5042687;28;20163;-82
2023/03/09 06:49:58;;;;;;;3.50;1.65;;;;;;;-143.04;100.00;61139.28;5042933;28;20112;-83
2023/03/09 06:52:25;;;;;;;3.60;2.30;;;;;;;-143.04;100.00;61139.28;5039749;28;20033;-83
2023/03/09 06:54:51;;;;;;;1.50;1.30;;;;;;;-143.04;100.00;61139.28;5039133;28;20041;-83
2023/03/09 06:57:17;;;;;;;3.25;2.05;;;;;;;-143.04;100.00;61139.28;5036593;28;20033;-83
2023/03/09 06:59:43;;;;;;;3.15;1.95;;;;;;;-143.04;100.00;61139.28;5037343;28;20385;-82
2023/03/09 07:02:13;;;;;;;1.55;1.10;;;;;;;-143.04;100.00;61139.28;5041608;28;20037;-82
2023/03/09 07:04:41;;;;;;;2.10;1.80;;;;;;;-143.04;100.00;61139.28;5041127;28;20049;-83
2023/03/09 07:07:07;;;;;;;2.00;1.63;;;;;;;-143.04;100.00;61139.28;5017557;28;20029;-85
2023/03/09 07:09:33;;;;;;;3.28;1.90;;;;;;;-143.04;100.00;61139.28;5026487;28;20359;-85
2023/03/09 07:12:00;;;;;;;1.40;1.30;;;;;;;-143.04;100.00;61139.28;5023823;28;20045;-86
2023/03/09 07:14:27;;;;;;;4.05;2.13;;;;;;;-143.04;100.00;61139.28;5043505;28;20045;-86
2023/03/09 07:16:54;;;;;;;2.55;1.65;;;;;;;-143.04;100.00;61139.28;5026791;28;20044;-86
2023/03/09 07:19:20;;;;;;;2.05;1.63;;;;;;;-143.04;100.00;61139.28;5031120;28;20647;-87
2023/03/09 07:21:46;;;;;;;2.08;1.58;;;;;;;-143.04;100.00;61139.28;5024746;28;20743;-84
2023/03/09 07:24:13;;;;;;;6.15;2.30;;;;;;;-143.04;100.00;61139.28;5034780;28;20042;-86
2023/03/09 07:26:39;;;;;;;2.55;1.40;;;;;;;-143.04;100.00;61139.28;5029022;28;20112;-85
2023/03/09 07:29:05;;;;;;;3.08;2.22;;;;;;;-143.04;100.00;61139.28;5038469;28;20609;-86
2023/03/09 07:31:30;;;;;;;3.88;2.15;;;;;;;-143.04;100.00;61139.28;5038677;28;20036;-85
2023/03/09 07:33:57;;;;;;;2.95;1.73;;;;;;;-143.04;100.00;61139.28;5031680;28;20029;-85
2023/03/09 07:38:39;;;;;;;5.28;1.98;;;;;;;;;;5059244;27;20415;-84
2023/03/09 07:43:25;;;;;;;3.97;1.50;;;;;;;8.96;93.45;96276.50;5027941;27;20351;-85
2023/03/09 07:45:51;;;;;;;3.47;1.88;;;;;;;-143.04;100.00;61139.28;5005111;28;20110;-84
2023/03/09 07:48:16;;;;;;;3.40;1.85;;;;;;;-143.04;100.00;61139.28;5038474;28;20037;-85
2023/03/09 07:50:43;;;;;;;3.28;1.60;;;;;;;-143.04;100.00;61139.28;5035904;28;20556;-85
2023/03/09 07:53:10;;;;;;;5.55;2.05;;;;;;;-143.04;100.00;61139.28;5035310;28;20481;-86
2023/03/09 07:55:36;;;;;;;5.45;2.13;;;;;;;-143.04;100.00;61139.28;5034230;28;20477;-85
2023/03/09 07:58:02;;;;;;;6.13;2.28;;;;;;;-143.04;100.00;61139.28;5025256;28;20503;-85
2023/03/09 08:00:28;;;;;;;5.80;2.15;;;;;;;-143.04;100.00;61139.28;5044200;28;20041;-85
2023/03/09 08:02:56;;;;;;;6.00;2.30;;;;;;;-143.04;100.00;61139.28;5034320;28;20045;-85
2023/03/09 08:05:22;;;;;;;5.57;1.60;;;;;;;-143.04;100.00;61139.28;5028955;28;20045;-85
2023/03/09 08:07:49;;;;;;;7.82;2.03;;;;;;;-143.04;100.00;61139.28;5029278;28;20069;-85
2023/03/09 08:10:17;;;;;;;3.78;1.58;;;;;;;-143.04;100.00;61139.28;5016950;28;21204;-85
2023/03/09 08:12:48;;;;;;;5.70;2.13;;;;;;;-143.04;100.00;61139.28;5036300;28;20524;-86
2023/03/09 08:15:14;;;;;;;6.43;2.00;;;;;;;-143.04;100.00;61139.28;5030780;28;20041;-85
2023/03/09 08:17:39;;;;;;;5.53;2.10;;;;;;;-143.04;100.00;61139.28;5030831;28;21753;-86
2023/03/09 08:20:11;;;;;;;4.55;1.80;;;;;;;-143.04;100.00;61139.28;5007667;28;20061;-84
2023/03/09 08:22:37;;;;;;;6.63;2.45;;;;;;;-143.04;100.00;61139.28;5023814;28;20511;-84
2023/03/09 08:26:13;;;;;;;4.57;1.55;;;;;;;9.23;88.86;96355.97;5051754;27;20422;-85
2023/03/09 08:28:41;;;;;;;5.47;1.60;;;;;;;9.07;90.70;96357.50;5022706;28;20055;-85
2023/03/09 08:31:11;;;;;;;2.35;1.30;;;;;;;-143.04;100.00;61139.28;5035164;28;20060;-85
2023/03/09 08:44:34;;;;;;;3.63;1.75;;;;;;;8.44;98.13;96375.78;4972511;27;20386;-86
2023/03/09 08:46:59;;;;;;;4.03;1.67;;;;;;;8.52;98.58;96378.06;4959370;28;20035;-85
2023/03/09 08:49:27;;;;;;;1.70;1.30;;;;;;;8.60;98.51;96388.16;4974872;28;20049;-86
2023/03/09 08:51:56;;;;;;;;;;;;;;;8.70;97.81;96398.06;4958575;28;20051;-86
2023/03/09 08:54:21;;;;;;;3.55;1.90;;;;;;;8.82;97.31;96411.91;4963859;28;20396;-85
2023/03/09 08:56:47;;;;;;;6.38;2.00;;;;;;;8.88;95.70;96397.94;4963448;28;20386;-86
2023/03/09 08:59:12;;;;;;;5.03;1.90;;;;;;;-143.04;100.00;61139.28;4966244;28;20382;-85
2023/03/09 09:01:40;;;;;;;4.57;1.52;;;;;;;-143.04;100.00;61139.28;4950276;28;20056;-86
2023/03/09 09:04:05;;;;;;;6.78;1.90;;;;;;;-143.04;100.00;61139.28;4969142;28;20039;-86
2023/03/09 09:06:31;;;;;;;3.55;1.50;;;;;;;-143.04;100.00;61139.28;4964260;28;20062;-85
2023/03/09 09:08:56;;;;;;;4.82;2.20;;;;;;;-143.04;100.00;61139.28;4963576;28;21376;-86
2023/03/09 09:11:22;;;;;;;4.13;1.70;;;;;;;-143.04;100.00;61139.28;4968863;28;20045;-85
2023/03/09 09:13:47;;;;;;;2.95;1.40;;;;;;;-143.04;100.00;61139.28;4960946;28;20042;-85
2023/03/09 09:16:15;;;;;;;7.75;2.08;;;;;;;-143.04;100.00;61139.28;4962514;28;20119;-85
2023/03/09 09:18:41;;;;;;;3.58;1.38;;;;;;;-143.04;100.00;61139.28;4966789;28;20038;-86
2023/03/09 09:21:10;;;;;;;5.28;2.08;;;;;;;-143.04;100.00;61139.28;4966659;28;20074;-86
2023/03/09 09:23:37;;;;;;;5.70;2.03;;;;;;;-143.04;100.00;61139.28;4977412;28;20046;-87
2023/03/09 09:26:05;;;;;;;8.68;2.05;;;;;;;-143.04;100.00;61139.28;4940926;28;20047;-85
2023/03/09 09:28:31;;;;;;;4.90;1.70;;;;;;;-143.04;100.00;61139.28;4967600;28;20438;-85
2023/03/09 09:31:01;;;;;;;2.38;1.00;;;;;;;-143.04;100.00;61139.28;4948848;28;20058;-85
2023/03/09 09:33:28;;;;;;;5.30;1.35;;;;;;;-143.04;100.00;61139.28;4964015;28;20042;-86
2023/03/09 09:36:06;;;;;;;1.92;1.33;;;;;;;-143.04;100.00;61139.28;4967375;28;20047;-86
2023/03/09 09:41:49;;;;;;;4.22;1.45;;;;;;;;;;5072058;27;1226305;-84
2023/03/09 09:44:36;;;;;;;4.53;1.50;;;;;;;;;;5118668;28;20347;-85
2023/03/09 09:47:05;;;;;;;4.15;1.55;;;;;;;;;;5115540;28;20043;-85
2023/03/09 09:49:38;;;;;;;2.88;1.10;;;;;;;;;;5111265;28;20131;-85
2023/03/09 09:52:34;;;;;;;5.78;1.67;;;;;;;;;;5100947;28;20035;-85
2023/03/09 09:55:18;;;;;;;3.17;1.10;;;;;;;;;;5116073;28;20035;-86
2023/03/09 09:57:52;;;;;;;2.63;1.10;;;;;;;;;;5115838;28;20062;-85
2023/03/09 10:00:20;;;;;;;2.35;1.00;;;;;;;;;;5112527;28;20038;-85
2023/03/09 10:03:22;;;;;;;2.67;1.08;;;;;;;;;;5104032;27;20052;-85
2023/03/09 10:07:13;;;;;;;0.93;0.88;;;;;;;;;;5041182;27;20398;-85
2023/03/09 10:11:34;;;;;;;1.40;1.00;;;;;;;10.16;84.05;96500.59;4746525;28;115628;-85
2023/03/09 10:14:32;;;;;;;2.53;1.25;;;;;;;10.21;84.01;96502.53;4903261;28;20050;-85
2023/03/09 10:17:02;;;;;;;7.75;2.55;;;;;;;10.31;84.21;96510.56;4970568;28;20128;-84
2023/03/09 10:19:38;;;;;;;3.03;1.30;;;;;;;10.28;83.78;96501.38;4971095;28;20081;-85
2023/03/09 10:22:22;;;;;;;2.33;1.65;;;;;;;10.24;84.38;96502.84;4957423;28;20066;-86
2023/03/09 10:24:55;;;;;;;2.60;1.15;;;;;;;10.29;84.00;96494.28;4943989;28;20141;-84
2023/03/09 10:27:44;;;;;;;4.78;1.00;;;;;;;10.45;83.89;96517.91;4927665;28;20478;-84
2023/03/09 10:30:14;;;;;;;6.10;1.92;;;;;;;10.41;83.22;96513.38;4962584;28;20324;-85
2023/03/09 10:32:40;;;;;;;2.00;1.13;;;;;;;10.40;83.57;96523.06;4954808;28;20058;-86
2023/03/09 10:35:43;;;;;;;4.45;1.70;;;;;;;10.37;83.92;96515.66;4957516;28;20201;-84
2023/03/09 10:38:16;;;;;;;3.40;1.13;;;;;;;10.34;84.42;96521.38;4933079;28;20082;-84
2023/03/09 10:40:48;;;;;;;3.63;1.10;;;;;;;10.31;84.62;96521.84;4971589;28;20153;-85
2023/03/09 10:43:35;;;;;;;3.13;1.40;;;;;;;10.34;84.84;96518.75;4972816;28;20069;-85
2023/03/09 10:46:25;;;;;;;3.80;1.48;;;;;;;10.34;85.36;96516.13;4962083;28;20113;-86
2023/03/09 10:49:14;;;;;;;2.92;1.52;;;;;;;10.27;86.27;96543.53;4978546;28;20039;-85
2023/03/09 10:52:00;;;;;;;4.82;1.58;;;;;;;10.16;88.76;96527.59;4965514;28;20108;-84
2023/03/09 10:54:36;;;;;;;5.15;1.60;;;;;;;9.99;90.79;96539.84;4963384;28;20039;-85
2023/03/09 10:57:20;;;;;;;5.35;1.48;;;;;;;9.91;92.52;96541.00;4979815;28;20027;-85
2023/03/09 11:00:13;;;;;;;2.65;1.40;;;;;;;9.97;93.18;96543.72;4963698;28;20030;-84
2023/03/09 11:02:53;;;;;;;4.72;1.50;;;;;;;9.96;93.69;96555.25;4966828;28;20050;-85
2023/03/09 11:05:25;;;;;;;5.65;1.98;;;;;;;9.92;93.79;96553.06;4963027;28;20066;-84
2023/03/09 11:07:55;;;;;;;5.47;1.85;;;;;;;9.85;94.05;96557.66;4965725;28;20035;-84
2023/03/09 11:10:33;;;;;;;2.70;1.35;;;;;;;9.60;96.08;96541.44;4964172;28;20054;-86
2023/03/09 11:13:02;;;;;;;6.22;1.60;;;;;;;9.42;98.47;96552.84;4965649;28;20031;-85
2023/03/09 11:15:40;;;;;;;5.60;1.52;;;;;;;9.42;98.99;96568.56;4964324;28;20043;-86
2023/03/09 11:18:29;;;;;;;3.28;1.15;;;;;;;9.53;98.64;96569.53;4966406;28;20043;-85
2023/03/09 11:20:55;;;;;;;4.80;2.00;;;;;;;9.54;97.50;96587.66;4960884;28;20035;-85
2023/03/09 11:23:38;;;;;;;3.88;1.30;;;;;;;9.59;96.80;96568.63;4952765;29;20066;-86
2023/03/09 11:26:21;;;;;;;7.72;2.30;;;;;;;9.62;96.79;96584.69;4953564;29;20035;-86
2023/03/09 11:29:01;;;;;;;7.47;2.47;;;;;;;9.62;96.92;96568.19;4969243;28;20059;-85
2023/03/09 11:31:42;;;;;;;6.32;1.77;;;;;;;9.59;97.77;96574.66;4953599;29;20055;-85
2023/03/09 11:34:15;;;;;;;5.60;1.48;;;;;;;9.60;97.58;96580.72;4952699;29;20491;-85
2023/03/09 11:37:02;;;;;;;3.33;1.80;;;;;;;9.64;97.12;96579.19;4953912;29;20031;-85
2023/03/09 11:40:17;;;;;;;5.22;2.00;;;;;;;9.76;96.62;96587.84;4951396;29;20514;-84
2023/03/09 11:42:51;;;;;;;6.95;1.67;;;;;;;10.09;95.36;96578.53;4951499;29;20137;-85
2023/03/09 11:45:24;;;;;;;5.25;1.73;;;;;;;10.23;92.89;96574.63;4953989;29;20041;-85
2023/03/09 11:48:07;;;;;;;3.45;1.48;;;;;;;10.34;91.44;96586.91;4953712;28;20035;-85
2023/03/09 11:50:50;;;;;;;7.15;1.88;;;;;;;10.45;90.44;96577.41;4952696;29;20032;-85
2023/03/09 11:53:39;;;;;;;4.68;1.90;;;;;;;10.58;88.79;96566.63;4950584;29;20518;-85
2023/03/09 11:56:38;;;;;;;2.70;1.50;;;;;;;10.77;87.65;96584.75;4950193;29;20115;-85